Time;durP1;ratioP1;P1;durP2;ratioP2;P2;SDS_P1;SDS_P2;PMS_P1;PMS_P2;Temp;Humidity;BMP_temperature;BMP_pressure;BME280_temperature;BME280_humidity;BME280_pressure;Samples;Min_cycle;Max_cycle;Signal;HPM_P1;HPM_P2
2022/11/20 00:01:21;;;;;;;1999.90;999.90;;;-3.70;99.90;;;;;;5086262;28;20522;-70
2022/11/20 00:03:48;;;;;;;1999.90;999.90;;;-3.70;99.90;;;;;;5090264;28;20471;-70
2022/11/20 00:06:17;;;;;;;1999.90;999.90;;;-3.60;99.90;;;;;;5089258;28;20468;-69
2022/11/20 00:08:44;;;;;;;1999.90;999.90;;;-3.60;99.90;;;;;;5087200;28;21003;-69
2022/11/20 00:11:14;;;;;;;1999.90;999.90;;;-3.80;99.90;;;;;;5090020;28;20495;-70
2022/11/20 00:13:40;;;;;;;1999.90;999.90;;;-3.80;99.90;;;;;;5089295;28;20456;-70
2022/11/20 00:16:11;;;;;;;1999.90;999.90;;;-3.70;99.90;;;;;;5086894;28;20456;-69
2022/11/20 00:18:38;;;;;;;1999.90;999.90;;;-3.70;99.90;;;;;;5086493;28;20487;-70
2022/11/20 00:21:06;;;;;;;1999.90;999.90;;;-3.80;99.90;;;;;;5088087;28;20484;-69
2022/11/20 00:23:33;;;;;;;1999.90;999.90;;;-3.90;99.90;;;;;;5089625;28;20465;-67
2022/11/20 00:26:04;;;;;;;1999.90;999.90;;;-3.90;99.90;;;;;;5089359;28;20460;-66
2022/11/20 00:28:30;;;;;;;1999.90;999.90;;;-4.00;99.90;;;;;;5085281;28;20464;-67
2022/11/20 00:31:02;;;;;;;1999.90;999.90;;;-3.90;99.90;;;;;;5089067;28;20487;-67
2022/11/20 00:33:30;;;;;;;1999.90;999.90;;;-3.90;99.90;;;;;;5085194;28;20464;-66
2022/11/20 00:36:01;;;;;;;1999.90;999.90;;;-3.80;99.90;;;;;;5089144;28;20460;-70
2022/11/20 00:38:28;;;;;;;1999.90;999.90;;;-3.80;99.90;;;;;;5088721;28;20534;-70
2022/11/20 00:40:59;;;;;;;1999.90;999.90;;;-3.80;99.90;;;;;;5083833;28;20817;-69
2022/11/20 00:43:26;;;;;;;1999.90;999.90;;;-3.80;99.90;;;;;;5086611;28;20460;-70
2022/11/20 00:45:57;;;;;;;1999.90;999.90;;;-3.70;99.90;;;;;;5087190;28;20464;-70
2022/11/20 00:48:24;;;;;;;1999.90;999.90;;;-3.70;99.90;;;;;;5089189;28;20463;-70
2022/11/20 00:50:53;;;;;;;1999.90;999.90;;;-3.80;99.90;;;;;;5084018;28;20501;-70
2022/11/20 00:53:20;;;;;;;1999.90;999.90;;;-3.80;99.90;;;;;;5088853;28;20471;-70
2022/11/20 00:55:54;;;;;;;1999.90;999.90;;;-3.80;99.90;;;;;;5083522;28;20456;-70
2022/11/20 00:58:21;;;;;;;1999.90;999.90;;;-3.70;99.90;;;;;;5085739;28;21155;-71
2022/11/20 01:00:49;;;;;;;1999.90;999.90;;;-3.70;99.90;;;;;;5089226;28;20468;-69
2022/11/20 01:03:16;;;;;;;1999.90;999.90;;;-3.60;99.90;;;;;;5089298;28;20547;-70
2022/11/20 01:05:42;;;;;;;1999.90;999.90;;;-3.70;99.90;;;;;;5090709;28;20952;-67
2022/11/20 01:08:10;;;;;;;1999.90;999.90;;;-3.70;99.90;;;;;;5091372;28;20844;-69
2022/11/20 01:10:37;;;;;;;1999.90;999.90;;;-3.70;99.90;;;;;;5088226;28;20488;-69
2022/11/20 01:15:48;;;;;;;1999.90;999.90;;;-3.80;99.90;;;;;;5088749;28;20844;-70
2022/11/20 01:18:15;;;;;;;1999.90;999.90;;;-3.80;99.90;;;;;;5089178;28;20459;-70
2022/11/20 01:20:42;;;;;;;1999.90;999.90;;;-3.70;99.90;;;;;;5091523;28;20487;-71
2022/11/20 01:23:10;;;;;;;1999.90;999.90;;;-3.70;99.90;;;;;;5088360;28;20463;-70
2022/11/20 01:25:37;;;;;;;1999.90;999.90;;;-3.70;99.90;;;;;;5089413;28;20452;-70
2022/11/20 01:28:03;;;;;;;1999.90;999.90;;;-3.80;99.90;;;;;;5091577;28;20868;-70
2022/11/20 01:30:30;;;;;;;1999.90;999.90;;;-3.90;99.90;;;;;;5090182;28;20487;-70
2022/11/20 01:32:57;;;;;;;1999.90;999.90;;;-4.00;99.90;;;;;;5091656;28;20842;-69
2022/11/20 01:35:24;;;;;;;1999.90;999.90;;;-4.10;99.90;;;;;;5088576;28;20456;-68
2022/11/20 01:37:51;;;;;;;1999.90;999.90;;;-4.10;99.90;;;;;;5087322;28;20459;-69
2022/11/20 01:40:19;;;;;;;1999.90;999.90;;;-4.20;99.90;;;;;;5087932;28;20476;-68
2022/11/20 01:43:22;;;;;;;1999.90;999.90;;;-4.20;99.90;;;;;;5091120;28;21043;-68
2022/11/20 01:46:15;;;;;;;1999.90;999.90;;;-4.10;99.90;;;;;;5083636;28;20476;-70
2022/11/20 01:48:48;;;;;;;1999.90;999.90;;;-3.90;99.90;;;;;;5090168;28;20518;-70
2022/11/20 01:51:22;;;;;;;1999.90;999.90;;;-3.90;99.90;;;;;;5085596;28;20491;-70
2022/11/20 01:53:50;;;;;;;1999.90;999.90;;;-3.90;99.90;;;;;;5088992;28;20457;-69
2022/11/20 01:56:18;;;;;;;1999.90;999.90;;;-4.00;99.90;;;;;;5086856;28;20983;-70
2022/11/20 01:58:49;;;;;;;1999.90;999.90;;;-4.10;99.90;;;;;;5087566;28;20457;-70
2022/11/20 02:01:16;;;;;;;1999.90;999.90;;;-4.20;99.90;;;;;;5089643;28;20476;-69
2022/11/20 02:03:44;;;;;;;1999.90;999.90;;;-4.20;99.90;;;;;;5089809;28;20457;-69
2022/11/20 02:06:15;;;;;;;1999.90;999.90;;;-4.10;99.90;;;;;;5086914;28;20461;-71
2022/11/20 02:08:42;;;;;;;1999.90;999.90;;;-4.10;99.90;;;;;;5087923;28;20464;-69
2022/11/20 02:11:09;;;;;;;1999.90;999.90;;;-4.10;99.90;;;;;;5090616;28;20495;-70
2022/11/20 02:13:45;;;;;;;1999.90;999.90;;;-4.20;99.90;;;;;;5084427;28;20464;-68
2022/11/20 02:16:23;;;;;;;1999.90;999.90;;;-4.10;99.90;;;;;;5086962;28;20492;-67
2022/11/20 02:18:50;;;;;;;1999.90;999.90;;;-4.10;99.90;;;;;;5089264;28;21039;-69
2022/11/20 02:21:33;;;;;;;1999.90;999.90;;;-4.10;99.90;;;;;;5086262;28;20559;-67
2022/11/20 02:24:14;;;;;;;1999.90;999.90;;;-4.10;99.90;;;;;;5086855;28;20452;-68
2022/11/20 02:26:48;;;;;;;1999.90;999.90;;;-4.50;99.90;;;;;;5088015;28;20456;-67
2022/11/20 02:29:17;;;;;;;1999.90;999.90;;;-4.10;99.90;;;;;;5088266;28;20460;-70
2022/11/20 02:31:45;;;;;;;1999.90;999.90;;;-4.10;99.90;;;;;;5086967;28;21166;-67
2022/11/20 02:34:12;;;;;;;1999.90;999.90;;;-4.00;99.90;;;;;;5087955;28;20456;-69
2022/11/20 02:36:42;;;;;;;1999.90;999.90;;;-4.00;99.90;;;;;;5089244;28;20467;-70
2022/11/20 02:39:16;;;;;;;1999.90;999.90;;;-4.00;99.90;;;;;;5090045;28;20486;-69
2022/11/20 02:41:43;;;;;;;1999.90;999.90;;;-4.00;99.90;;;;;;5090038;28;20472;-69
2022/11/20 02:44:10;;;;;;;1999.90;999.90;;;-4.00;99.90;;;;;;5089131;28;20463;-70
2022/11/20 02:46:37;;;;;;;1999.90;999.90;;;-4.00;99.90;;;;;;5085389;28;20456;-70
2022/11/20 02:49:05;;;;;;;1999.90;999.90;;;-4.00;99.90;;;;;;5086395;28;20464;-70
2022/11/20 02:51:32;;;;;;;1999.90;999.90;;;-4.00;99.90;;;;;;5089791;28;20486;-69
2022/11/20 02:53:59;;;;;;;1999.90;999.90;;;-4.10;99.90;;;;;;5087125;28;20464;-69
2022/11/20 02:56:27;;;;;;;1999.90;999.90;;;-4.10;99.90;;;;;;5082676;28;20468;-68
2022/11/20 02:58:54;;;;;;;1999.90;999.90;;;-4.10;99.90;;;;;;5082993;28;20809;-69
2022/11/20 03:01:21;;;;;;;1999.90;999.90;;;-4.20;99.90;;;;;;5088305;28;20995;-69
2022/11/20 03:03:48;;;;;;;1999.90;999.90;;;-4.20;99.90;;;;;;5085230;28;20849;-68
2022/11/20 03:06:15;;;;;;;1999.90;999.90;;;-4.20;99.90;;;;;;5085655;28;20556;-70
2022/11/20 03:08:42;;;;;;;1999.90;999.90;;;-4.20;99.90;;;;;;5089757;28;20457;-69
2022/11/20 03:11:09;;;;;;;1999.90;999.90;;;-4.40;99.90;;;;;;5089835;28;20488;-68
2022/11/20 03:13:37;;;;;;;1999.90;999.90;;;-4.40;99.90;;;;;;5084985;28;20480;-67
2022/11/20 03:16:09;;;;;;;1999.90;999.90;;;-4.30;99.90;;;;;;5083629;28;20479;-67
2022/11/20 03:18:36;;;;;;;1999.90;999.90;;;-4.30;99.90;;;;;;5081528;28;20467;-68
2022/11/20 03:21:03;;;;;;;1999.90;999.90;;;-4.20;99.90;;;;;;5082906;28;21000;-67
2022/11/20 03:23:30;;;;;;;1999.90;999.90;;;-4.20;99.90;;;;;;5090971;28;20876;-67
2022/11/20 03:26:07;;;;;;;1999.90;999.90;;;-4.20;99.90;;;;;;5089988;28;20883;-68
2022/11/20 03:28:34;;;;;;;1999.90;999.90;;;-4.20;99.90;;;;;;5088722;28;20838;-67
2022/11/20 03:31:07;;;;;;;1999.90;999.90;;;-4.30;99.90;;;;;;5088972;28;22516;-67
2022/11/20 03:33:34;;;;;;;1999.90;999.90;;;-4.30;99.90;;;;;;5089771;28;20460;-67
2022/11/20 03:36:02;;;;;;;1999.90;999.90;;;-4.50;99.90;;;;;;5088128;28;20460;-66
2022/11/20 03:38:30;;;;;;;1999.90;999.90;;;-4.50;99.90;;;;;;5091372;28;20456;-66
2022/11/20 03:40:59;;;;;;;1999.90;999.90;;;-4.40;99.90;;;;;;5085762;28;20468;-66
2022/11/20 03:43:26;;;;;;;1999.90;999.90;;;-4.40;99.90;;;;;;5090355;28;20834;-66
2022/11/20 03:45:53;;;;;;;1999.90;999.90;;;-4.30;99.90;;;;;;5090006;28;20464;-67
2022/11/20 03:48:21;;;;;;;1999.90;999.90;;;-4.30;99.90;;;;;;5086713;28;20448;-66
2022/11/20 03:50:48;;;;;;;1999.90;999.90;;;-4.30;99.90;;;;;;5086022;28;20484;-67
2022/11/20 03:53:15;;;;;;;1999.90;999.90;;;-4.30;99.90;;;;;;5089561;28;20467;-68
2022/11/20 03:55:42;;;;;;;1999.90;999.90;;;-4.40;99.90;;;;;;5089811;28;20469;-67
2022/11/20 03:58:09;;;;;;;1999.90;999.90;;;-4.50;99.90;;;;;;5093098;28;20468;-67
2022/11/20 04:00:36;;;;;;;1999.90;999.90;;;-4.50;99.90;;;;;;5084451;28;20496;-67
2022/11/20 04:03:03;;;;;;;1999.90;999.90;;;-4.50;99.90;;;;;;5087705;28;20460;-67
2022/11/20 04:05:33;;;;;;;1999.90;999.90;;;-4.50;99.90;;;;;;5091470;28;20464;-67
2022/11/20 04:08:00;;;;;;;1999.90;999.90;;;-4.50;99.90;;;;;;5085095;28;20830;-67
2022/11/20 04:10:27;;;;;;;1999.90;999.90;;;-4.60;99.90;;;;;;5086340;28;20863;-67
2022/11/20 04:12:53;;;;;;;1999.90;999.90;;;-4.70;99.90;;;;;;5092685;28;20459;-66
2022/11/20 04:15:20;;;;;;;1999.90;999.90;;;-4.70;99.90;;;;;;5087152;28;20465;-67
2022/11/20 04:17:47;;;;;;;1999.90;999.90;;;-4.80;99.90;;;;;;5085882;28;20956;-66
2022/11/20 04:20:14;;;;;;;1999.90;999.90;;;-4.80;99.90;;;;;;5089954;28;20487;-67
2022/11/20 04:22:42;;;;;;;1999.90;999.90;;;-4.50;99.90;;;;;;5090177;28;20806;-67
2022/11/20 04:25:09;;;;;;;1999.90;999.90;;;-4.50;99.90;;;;;;5085393;28;20469;-67
2022/11/20 04:27:36;;;;;;;1999.90;999.90;;;-4.50;99.90;;;;;;5090695;28;20461;-67
2022/11/20 04:30:03;;;;;;;1999.90;999.90;;;-4.40;99.90;;;;;;5087161;28;20488;-67
2022/11/20 04:32:30;;;;;;;1999.90;999.90;;;-4.40;99.90;;;;;;5088774;28;20465;-67
2022/11/20 04:34:57;;;;;;;1999.90;999.90;;;-4.40;99.90;;;;;;5088000;28;20468;-67
2022/11/20 04:37:23;;;;;;;1999.90;999.90;;;-4.40;99.90;;;;;;5087266;28;20832;-66
2022/11/20 04:39:52;;;;;;;1999.90;999.90;;;-4.40;99.90;;;;;;5091469;28;20586;-67
2022/11/20 04:42:30;;;;;;;1999.90;999.90;;;-4.40;99.90;;;;;;5083484;28;20464;-67
2022/11/20 04:44:58;;;;;;;1999.90;999.90;;;-4.40;99.90;;;;;;5087416;28;20458;-67
2022/11/20 04:47:24;;;;;;;1999.90;999.90;;;-4.40;99.90;;;;;;5088526;28;20547;-67
2022/11/20 04:49:51;;;;;;;1999.90;999.90;;;-4.40;99.90;;;;;;5090941;28;20461;-68
2022/11/20 04:52:18;;;;;;;1999.90;999.90;;;-4.30;99.90;;;;;;5091795;28;20464;-68
2022/11/20 04:54:45;;;;;;;1999.90;999.90;;;-4.30;99.90;;;;;;5090655;28;20461;-68
2022/11/20 04:57:14;;;;;;;1999.90;999.90;;;-4.30;99.90;;;;;;5087959;28;20461;-68
2022/11/20 04:59:41;;;;;;;1999.90;999.90;;;-4.30;99.90;;;;;;5084709;28;20484;-65
2022/11/20 05:02:07;;;;;;;1999.90;999.90;;;-4.30;99.90;;;;;;5091707;28;20808;-68
2022/11/20 05:04:34;;;;;;;1999.90;999.90;;;-4.20;99.90;;;;;;5089819;28;20836;-67
2022/11/20 05:07:01;;;;;;;1999.90;999.90;;;-4.20;99.90;;;;;;5091790;28;20843;-67
2022/11/20 05:09:28;;;;;;;1999.90;999.90;;;-4.20;99.90;;;;;;5090806;28;20971;-69
2022/11/20 05:11:54;;;;;;;1999.90;999.90;;;-4.10;99.90;;;;;;5087087;28;20488;-69
2022/11/20 05:14:22;;;;;;;1999.90;999.90;;;-4.10;99.90;;;;;;5087056;28;20464;-68
2022/11/20 05:16:49;;;;;;;1999.90;999.90;;;-4.10;99.90;;;;;;5090330;28;20491;-69
2022/11/20 05:19:16;;;;;;;1999.90;999.90;;;-4.10;99.90;;;;;;5091494;28;20460;-69
2022/11/20 05:21:43;;;;;;;1999.90;999.90;;;-4.10;99.90;;;;;;5086801;28;22129;-69
2022/11/20 05:24:10;;;;;;;1999.90;999.90;;;-4.10;99.90;;;;;;5090340;28;21006;-69
2022/11/20 05:26:36;;;;;;;1999.90;999.90;;;-4.20;99.90;;;;;;5085439;28;20457;-69
2022/11/20 05:29:03;;;;;;;1999.90;999.90;;;-4.20;99.90;;;;;;5086136;28;20464;-70
2022/11/20 05:31:31;;;;;;;1999.90;999.90;;;-4.20;99.90;;;;;;5090545;28;20481;-69
2022/11/20 05:33:58;;;;;;;1999.90;999.90;;;-4.30;99.90;;;;;;5088527;28;20803;-70
2022/11/20 05:36:25;;;;;;;1999.90;999.90;;;-4.20;99.90;;;;;;5088883;28;20459;-68
2022/11/20 05:38:51;;;;;;;1999.90;999.90;;;-4.30;99.90;;;;;;5089868;28;20467;-69
2022/11/20 05:41:20;;;;;;;1999.90;999.90;;;-4.30;99.90;;;;;;5084178;28;20558;-70
2022/11/20 05:43:48;;;;;;;1999.90;999.90;;;-4.40;99.90;;;;;;5086088;28;20471;-67
2022/11/20 05:46:18;;;;;;;1999.90;999.90;;;-4.40;99.90;;;;;;5090200;28;20468;-67
2022/11/20 05:48:47;;;;;;;1999.90;999.90;;;-4.30;99.90;;;;;;5090834;28;20472;-67
2022/11/20 05:51:17;;;;;;;1999.90;999.90;;;-4.40;99.90;;;;;;5087505;28;20495;-68
2022/11/20 05:53:45;;;;;;;1999.90;999.90;;;-4.40;99.90;;;;;;5085750;28;20468;-67
2022/11/20 05:56:14;;;;;;;1999.90;999.90;;;-4.50;99.90;;;;;;5085352;28;20468;-67
2022/11/20 05:58:41;;;;;;;1999.90;999.90;;;-4.40;99.90;;;;;;5090064;28;20457;-67
2022/11/20 06:01:10;;;;;;;1999.90;999.90;;;-4.40;99.90;;;;;;5094039;28;20480;-68
2022/11/20 06:03:37;;;;;;;1999.90;999.90;;;-4.40;99.90;;;;;;5106415;28;20486;-68
2022/11/20 06:06:06;;;;;;;1999.90;999.90;;;-4.30;99.90;;;;;;5102392;28;20988;-68
2022/11/20 06:08:33;;;;;;;1999.90;999.90;;;-4.40;99.90;;;;;;5095833;28;20457;-67
2022/11/20 06:11:04;;;;;;;1999.90;999.90;;;-4.30;99.90;;;;;;5104094;28;20468;-68
2022/11/20 06:13:31;;;;;;;1999.90;999.90;;;-4.30;99.90;;;;;;5093215;28;20818;-67
2022/11/20 06:15:58;;;;;;;1999.90;999.90;;;-4.30;99.90;;;;;;5089078;28;20971;-67
2022/11/20 06:18:27;;;;;;;1999.90;999.90;;;-4.30;99.90;;;;;;5087273;28;20463;-68
2022/11/20 06:21:00;;;;;;;1999.90;999.90;;;-4.50;99.90;;;;;;5089740;28;21027;-67
2022/11/20 06:23:31;;;;;;;1999.90;999.90;;;-4.40;99.90;;;;;;5082885;28;20800;-67
2022/11/20 06:25:58;;;;;;;1999.90;999.90;;;-4.40;99.90;;;;;;5086296;28;20456;-67
2022/11/20 06:28:24;;;;;;;1999.90;999.90;;;-4.50;99.90;;;;;;5086720;28;20456;-67
2022/11/20 06:30:51;;;;;;;1999.90;999.90;;;-4.50;99.90;;;;;;5080768;28;20484;-65
2022/11/20 06:33:18;;;;;;;1999.90;999.90;;;-4.50;99.90;;;;;;5089968;28;20495;-67
2022/11/20 06:35:45;;;;;;;1999.90;999.90;;;-4.50;99.90;;;;;;5088181;28;20464;-67
2022/11/20 06:38:12;;;;;;;1999.90;999.90;;;-4.50;99.90;;;;;;5083590;28;20461;-68
2022/11/20 06:40:42;;;;;;;1999.90;999.90;;;-4.50;99.90;;;;;;5082704;28;20477;-67
2022/11/20 06:43:09;;;;;;;1999.90;999.90;;;-4.60;99.90;;;;;;5085930;28;20467;-68
2022/11/20 06:45:36;;;;;;;1999.90;999.90;;;-4.80;99.90;;;;;;5086790;28;21669;-67
2022/11/20 06:48:03;;;;;;;1999.90;999.90;;;-4.80;99.90;;;;;;5090019;28;20467;-67
2022/11/20 06:50:29;;;;;;;1999.90;999.90;;;-4.90;99.90;;;;;;5083859;28;20485;-66
2022/11/20 06:52:56;;;;;;;1999.90;999.90;;;-4.80;99.90;;;;;;5084229;28;20468;-67
2022/11/20 06:55:23;;;;;;;1999.90;999.90;;;-4.90;99.90;;;;;;5087203;28;20468;-67
2022/11/20 06:57:51;;;;;;;1999.90;999.90;;;-4.80;99.90;;;;;;5088795;28;20461;-67
2022/11/20 07:00:18;;;;;;;1999.90;999.90;;;-4.80;99.90;;;;;;5089796;28;20480;-67
2022/11/20 07:02:45;;;;;;;1999.90;999.90;;;-4.80;99.90;;;;;;5090765;28;20464;-66
2022/11/20 07:05:12;;;;;;;1999.90;999.90;;;-4.70;99.90;;;;;;5087519;28;20460;-67
2022/11/20 07:07:38;;;;;;;1999.90;999.90;;;-4.70;99.90;;;;;;5090551;28;20456;-68
2022/11/20 07:10:06;;;;;;;1999.90;999.90;;;-4.60;99.90;;;;;;5088974;28;20480;-67
2022/11/20 07:12:33;;;;;;;1999.90;999.90;;;-4.60;99.90;;;;;;5093401;28;20476;-68
2022/11/20 07:15:01;;;;;;;1999.90;999.90;;;-4.50;99.90;;;;;;5086642;28;20464;-68
2022/11/20 07:17:28;;;;;;;1999.90;999.90;;;-4.50;99.90;;;;;;5091888;28;20457;-67
2022/11/20 07:19:55;;;;;;;1999.90;999.90;;;-4.50;99.90;;;;;;5084797;28;20454;-66
2022/11/20 07:22:22;;;;;;;1999.90;999.90;;;-4.50;99.90;;;;;;5089765;28;20452;-67
2022/11/20 07:24:49;;;;;;;1999.90;999.90;;;-4.40;99.90;;;;;;5092439;28;22073;-67
2022/11/20 07:27:16;;;;;;;1999.90;999.90;;;-4.30;99.90;;;;;;5093615;28;20878;-67
2022/11/20 07:29:42;;;;;;;1999.90;999.90;;;-4.10;99.90;;;;;;5092567;28;20834;-69
2022/11/20 07:32:10;;;;;;;1999.90;999.90;;;-4.00;99.90;;;;;;5087727;28;20481;-69
2022/11/20 07:34:37;;;;;;;1999.90;999.90;;;-4.00;99.90;;;;;;5086847;28;20464;-70
2022/11/20 07:37:04;;;;;;;1999.90;999.90;;;-3.80;99.90;;;;;;5093675;28;20866;-69
2022/11/20 07:39:31;;;;;;;1999.90;999.90;;;-3.70;99.90;;;;;;5093189;28;21157;-69
2022/11/20 07:41:57;;;;;;;1999.90;999.90;;;-3.40;99.90;;;;;;5092873;28;20483;-69
2022/11/20 07:44:24;;;;;;;1999.90;999.90;;;-3.30;99.90;;;;;;5092682;28;20456;-69
2022/11/20 07:46:51;;;;;;;1999.90;999.90;;;-3.20;99.90;;;;;;5088315;28;20478;-68
2022/11/20 07:49:19;;;;;;;1999.90;999.90;;;-3.20;99.90;;;;;;5082102;28;20452;-70
2022/11/20 07:51:46;;;;;;;1999.90;999.90;;;-3.20;99.90;;;;;;5090928;28;20484;-69
2022/11/20 07:54:12;;;;;;;1999.90;999.90;;;-3.10;99.90;;;;;;5093094;28;20462;-70
2022/11/20 07:56:39;;;;;;;1999.90;999.90;;;-3.00;99.90;;;;;;5089659;28;20460;-69
2022/11/20 07:59:06;;;;;;;1999.90;999.90;;;-2.90;99.90;;;;;;5089878;28;20956;-67
2022/11/20 08:01:32;;;;;;;1999.90;999.90;;;-2.90;99.90;;;;;;5093514;28;20457;-69
2022/11/20 08:03:59;;;;;;;1999.90;999.90;;;-2.70;99.90;;;;;;5078086;28;20442;-69
2022/11/20 08:06:27;;;;;;;1999.90;999.90;;;-2.50;99.90;;;;;;5085760;28;20453;-69
2022/11/20 08:08:54;;;;;;;1999.90;999.90;;;-2.50;99.90;;;;;;5083558;28;20440;-69
2022/11/20 08:14:15;;;;;;;1999.90;999.90;;;-2.30;99.90;;;;;;5073709;28;20416;-67
2022/11/20 08:16:43;;;;;;;1999.90;999.90;;;-2.10;99.90;;;;;;5083317;28;20533;-67
2022/11/20 08:19:09;;;;;;;1999.90;999.90;;;-1.80;99.90;;;;;;5081801;28;20464;-67
2022/11/20 08:21:38;;;;;;;1999.90;999.90;;;-1.60;99.90;;;;;;5087247;28;21007;-66
2022/11/20 08:24:05;;;;;;;1999.90;999.90;;;-1.40;99.90;;;;;;5086429;28;20547;-67
2022/11/20 08:26:32;;;;;;;1999.90;999.90;;;-1.20;99.90;;;;;;5090529;28;20964;-67
2022/11/20 08:28:59;;;;;;;1999.90;999.90;;;-1.20;99.90;;;;;;5084400;28;20987;-67
2022/11/20 08:31:27;;;;;;;1999.90;999.90;;;-1.20;99.90;;;;;;5087069;28;20493;-67
2022/11/20 08:33:54;;;;;;;1999.90;999.90;;;-0.90;99.90;;;;;;5086119;28;20467;-67
2022/11/20 08:36:22;;;;;;;1999.90;999.90;;;-0.80;99.90;;;;;;5088335;28;21022;-67
2022/11/20 08:38:51;;;;;;;1999.90;999.90;;;-0.70;99.90;;;;;;5088978;28;20839;-66
2022/11/20 08:41:26;;;;;;;1999.90;999.90;;;-0.30;99.90;;;;;;5091705;28;20480;-67
2022/11/20 08:43:56;;;;;;;1999.90;999.90;;;-0.20;99.90;;;;;;5084730;28;20460;-67
2022/11/20 08:46:24;;;;;;;1999.90;999.90;;;-0.10;99.90;;;;;;5086082;28;20468;-68
2022/11/20 08:48:51;;;;;;;1999.90;999.90;;;0.00;99.90;;;;;;5087087;28;20452;-67
2022/11/20 08:51:18;;;;;;;1999.90;999.90;;;0.10;99.90;;;;;;5092767;28;20578;-66
2022/11/20 08:53:45;;;;;;;1999.90;999.90;;;0.00;99.90;;;;;;5089239;28;20823;-67
2022/11/20 08:56:14;;;;;;;1999.90;999.90;;;-0.20;99.90;;;;;;5085063;28;20458;-69
2022/11/20 08:58:41;;;;;;;1999.90;999.90;;;-0.30;99.90;;;;;;5079140;28;20965;-69
2022/11/20 09:01:08;;;;;;;1999.90;999.90;;;-0.50;99.90;;;;;;5078271;28;20563;-67
2022/11/20 09:03:35;;;;;;;1999.90;999.90;;;-0.50;99.90;;;;;;5086665;28;20444;-67
2022/11/20 09:06:04;;;;;;;1999.90;999.90;;;-0.40;99.90;;;;;;5093318;28;20440;-68
2022/11/20 09:08:31;;;;;;;1999.90;999.90;;;-0.40;99.90;;;;;;5093605;28;20440;-67
2022/11/20 09:10:59;;;;;;;1999.90;999.90;;;-0.20;99.90;;;;;;5083924;28;20480;-67
2022/11/20 09:13:28;;;;;;;1999.90;999.90;;;0.50;99.90;;;;;;5088324;28;20511;-67
2022/11/20 09:15:56;;;;;;;1999.90;999.90;;;0.90;99.90;;;;;;5087999;28;20464;-68
2022/11/20 09:18:23;;;;;;;1999.90;999.90;;;0.60;99.90;;;;;;5079646;28;20464;-67
2022/11/20 09:20:50;;;;;;;1999.90;999.90;;;0.70;99.90;;;;;;5091713;28;20486;-68
2022/11/20 09:23:17;;;;;;;1999.90;999.90;;;0.70;99.90;;;;;;5090885;28;20468;-67
2022/11/20 09:25:44;;;;;;;1999.90;999.90;;;0.80;99.90;;;;;;5086182;28;20833;-68
2022/11/20 09:28:11;;;;;;;1999.90;999.90;;;0.90;99.90;;;;;;5090674;28;20465;-67
2022/11/20 09:30:39;;;;;;;1999.90;999.90;;;0.90;99.90;;;;;;5089826;28;20995;-68
2022/11/20 09:33:06;;;;;;;1999.90;999.90;;;0.80;99.90;;;;;;5087347;28;20484;-67
2022/11/20 09:35:33;;;;;;;1999.90;999.90;;;0.90;99.90;;;;;;5088194;28;20803;-67
2022/11/20 09:38:06;;;;;;;1999.90;999.90;;;0.90;99.90;;;;;;5086519;28;20460;-66
2022/11/20 09:40:34;;;;;;;1999.90;999.90;;;1.00;99.90;;;;;;5086591;28;20472;-67
2022/11/20 09:43:07;;;;;;;1999.90;999.90;;;1.20;99.90;;;;;;5088971;28;20449;-67
2022/11/20 09:45:49;;;;;;;1999.90;999.90;;;1.40;99.90;;;;;;5086319;28;20453;-67
2022/11/20 09:49:02;;;;;;;1999.90;999.90;;;1.30;99.90;;;;;;5088311;28;20465;-68
2022/11/20 09:51:38;;;;;;;1999.90;999.90;;;1.50;99.90;;;;;;5021036;28;20499;-68
2022/11/20 09:54:16;;;;;;;1999.90;999.90;;;1.90;99.90;;;;;;5078245;28;20465;-67
2022/11/20 09:56:48;;;;;;;1999.90;999.90;;;1.70;99.90;;;;;;5083666;28;20453;-68
2022/11/20 09:59:34;;;;;;;1999.90;999.90;;;1.80;99.90;;;;;;5078509;28;20448;-67
2022/11/20 10:02:07;;;;;;;1999.90;999.90;;;1.90;99.90;;;;;;5085627;28;20468;-66
2022/11/20 10:04:45;;;;;;;1999.90;999.90;;;1.80;99.90;;;;;;5082339;28;20440;-67
2022/11/20 10:07:17;;;;;;;1999.90;999.90;;;2.10;99.90;;;;;;5073867;28;20964;-68
2022/11/20 10:09:51;;;;;;;1999.90;999.90;;;2.40;99.90;;;;;;5072167;28;20441;-67
2022/11/20 10:12:25;;;;;;;1999.90;999.90;;;2.40;99.90;;;;;;5082775;28;20501;-67
2022/11/20 10:15:12;;;;;;;1999.90;999.90;;;2.30;99.90;;;;;;5083304;28;20447;-68
2022/11/20 10:18:02;;;;;;;1999.90;999.90;;;2.60;99.90;;;;;;5072442;28;20425;-68
2022/11/20 10:20:36;;;;;;;1999.90;999.90;;;2.40;99.90;;;;;;5071856;28;20469;-66
2022/11/20 10:23:26;;;;;;;1999.90;999.90;;;2.90;99.90;;;;;;5089958;28;20459;-67
2022/11/20 10:25:59;;;;;;;1999.90;999.90;;;2.90;99.90;;;;;;5086936;28;20833;-68
2022/11/20 10:28:41;;;;;;;1999.90;999.90;;;3.20;99.90;;;;;;5084960;28;20457;-67
2022/11/20 10:31:12;;;;;;;1999.90;999.90;;;3.30;99.90;;;;;;5086711;28;20992;-67
2022/11/20 10:33:44;;;;;;;1999.90;999.90;;;3.50;99.90;;;;;;5087511;28;20896;-66
2022/11/20 10:36:16;;;;;;;1999.90;999.90;;;3.50;99.90;;;;;;5077366;28;20960;-67
2022/11/20 10:38:46;;;;;;;1999.90;999.90;;;3.50;99.90;;;;;;5081313;28;20460;-66
2022/11/20 10:41:28;;;;;;;1999.90;999.90;;;3.40;99.90;;;;;;5080344;28;20485;-67
2022/11/20 10:44:03;;;;;;;1999.90;999.90;;;3.20;99.90;;;;;;5075103;28;20539;-67
2022/11/20 10:46:38;;;;;;;1999.90;999.90;;;3.20;99.90;;;;;;5080540;28;21406;-67
2022/11/20 10:49:13;;;;;;;1999.90;999.90;;;3.30;99.90;;;;;;5089130;28;20567;-68
2022/11/20 10:51:52;;;;;;;1999.90;999.90;;;3.30;99.90;;;;;;5088073;28;21019;-67
2022/11/20 10:54:30;;;;;;;1999.90;999.90;;;3.30;99.90;;;;;;5086271;28;20452;-68
2022/11/20 10:57:04;;;;;;;1999.90;999.90;;;3.30;99.90;;;;;;5085628;28;20452;-67
2022/11/20 10:59:42;;;;;;;1999.90;999.90;;;3.30;99.90;;;;;;5085016;28;20452;-66
2022/11/20 11:02:20;;;;;;;1999.90;999.90;;;3.40;99.90;;;;;;5089902;28;20456;-67
2022/11/20 11:04:50;;;;;;;1999.90;999.90;;;3.50;99.90;;;;;;5086866;28;20467;-67
2022/11/20 11:07:21;;;;;;;1999.90;999.90;;;3.50;99.90;;;;;;5089472;28;20488;-67
2022/11/20 11:09:51;;;;;;;1999.90;999.90;;;3.50;99.90;;;;;;5080830;28;20452;-67
2022/11/20 11:12:18;;;;;;;1999.90;999.90;;;3.40;99.90;;;;;;5071576;28;20488;-66
2022/11/20 11:14:49;;;;;;;1999.90;999.90;;;3.40;99.90;;;;;;5088455;28;20448;-67
2022/11/20 11:17:27;;;;;;;1999.90;999.90;;;3.30;99.90;;;;;;5091006;28;20540;-67
2022/11/20 11:20:07;;;;;;;1999.90;999.90;;;3.10;99.90;;;;;;5084613;28;20501;-67
2022/11/20 11:22:35;;;;;;;1999.90;999.90;;;3.00;99.90;;;;;;5087026;28;20456;-67
2022/11/20 11:25:02;;;;;;;1999.90;999.90;;;2.80;99.90;;;;;;5085504;28;20460;-67
2022/11/20 11:27:29;;;;;;;1999.90;999.90;;;2.90;99.90;;;;;;5085082;28;20477;-67
2022/11/20 11:30:14;;;;;;;1999.90;999.90;;;3.20;99.90;;;;;;5089629;28;20452;-67
2022/11/20 11:32:41;;;;;;;1999.90;999.90;;;3.40;99.90;;;;;;5088566;28;20537;-67
2022/11/20 11:35:21;;;;;;;1999.90;999.90;;;3.70;99.90;;;;;;5086196;28;20464;-67
2022/11/20 11:37:49;;;;;;;1999.90;999.90;;;3.90;99.90;;;;;;5084808;28;20456;-67
2022/11/20 11:40:17;;;;;;;1999.90;999.90;;;4.00;99.90;;;;;;5085029;28;21125;-67
2022/11/20 11:42:48;;;;;;;1999.90;999.90;;;4.10;99.90;;;;;;5087797;28;20475;-67
2022/11/20 11:45:17;;;;;;;1999.90;999.90;;;4.30;99.90;;;;;;5088316;28;20460;-67
2022/11/20 11:47:47;;;;;;;1999.90;999.90;;;4.40;99.90;;;;;;5081866;28;20453;-68
2022/11/20 11:50:21;;;;;;;1999.90;999.90;;;4.60;99.90;;;;;;5088387;28;20984;-67
2022/11/20 11:52:57;;;;;;;1999.90;999.90;;;4.60;99.90;;;;;;5092849;28;20532;-66
2022/11/20 11:55:31;;;;;;;1999.90;999.90;;;4.80;99.90;;;;;;5087905;28;20471;-68
2022/11/20 11:58:10;;;;;;;1999.90;999.90;;;4.80;99.90;;;;;;5093510;28;20892;-67
2022/11/20 12:00:40;;;;;;;1999.90;999.90;;;4.80;99.90;;;;;;5087459;28;20487;-67
2022/11/20 12:03:14;;;;;;;1999.90;999.90;;;4.80;99.90;;;;;;5089712;28;20459;-66
2022/11/20 12:05:45;;;;;;;1999.90;999.90;;;4.70;99.90;;;;;;5088814;28;20452;-67
2022/11/20 12:08:19;;;;;;;1999.90;999.90;;;4.70;99.90;;;;;;5094905;28;20425;-67
2022/11/20 12:10:50;;;;;;;1999.90;999.90;;;4.70;99.90;;;;;;5092609;28;20647;-66
2022/11/20 12:13:37;;;;;;;1999.90;999.90;;;4.40;99.90;;;;;;5091169;28;20560;-69
2022/11/20 12:16:06;;;;;;;1999.90;999.90;;;4.30;99.90;;;;;;5087660;28;20469;-69
2022/11/20 12:18:33;;;;;;;1999.90;999.90;;;4.20;99.90;;;;;;5092214;28;20470;-69